sensor_id;sensor_type;location;lat;lon;timestamp;P1;durP1;ratioP1;P2;durP2;ratioP2
21810;SDS011;11067;48.788;9.208;2022-08-25T00:00:31;5.20;;;3.20;;
21810;SDS011;11067;48.788;9.208;2022-08-25T00:02:56;4.77;;;3.07;;
21810;SDS011;11067;48.788;9.208;2022-08-25T00:05:26;5.60;;;3.67;;
21810;SDS011;11067;48.788;9.208;2022-08-25T00:07:52;4.75;;;3.05;;
21810;SDS011;11067;48.788;9.208;2022-08-25T00:10:18;6.20;;;3.50;;
21810;SDS011;11067;48.788;9.208;2022-08-25T00:12:45;6.10;;;2.60;;
21810;SDS011;11067;48.788;9.208;2022-08-25T00:15:10;4.07;;;3.00;;
21810;SDS011;11067;48.788;9.208;2022-08-25T00:17:37;4.80;;;3.00;;
21810;SDS011;11067;48.788;9.208;2022-08-25T00:20:03;4.13;;;3.00;;
21810;SDS011;11067;48.788;9.208;2022-08-25T00:22:30;5.53;;;2.70;;
21810;SDS011;11067;48.788;9.208;2022-08-25T00:24:55;3.57;;;2.77;;
21810;SDS011;11067;48.788;9.208;2022-08-25T00:27:21;5.50;;;3.03;;
21810;SDS011;11067;48.788;9.208;2022-08-25T00:29:46;5.05;;;3.15;;
21810;SDS011;11067;48.788;9.208;2022-08-25T00:32:12;7.53;;;3.77;;
21810;SDS011;11067;48.788;9.208;2022-08-25T00:34:38;6.00;;;3.42;;
21810;SDS011;11067;48.788;9.208;2022-08-25T00:37:04;5.75;;;3.50;;
21810;SDS011;11067;48.788;9.208;2022-08-25T00:39:33;7.05;;;3.85;;
21810;SDS011;11067;48.788;9.208;2022-08-25T00:41:59;5.80;;;3.72;;
21810;SDS011;11067;48.788;9.208;2022-08-25T00:44:26;5.20;;;3.38;;
21810;SDS011;11067;48.788;9.208;2022-08-25T00:46:55;6.65;;;3.80;;
21810;SDS011;11067;48.788;9.208;2022-08-25T00:52:23;7.47;;;4.20;;
21810;SDS011;11067;48.788;9.208;2022-08-25T00:54:53;7.05;;;4.20;;
21810;SDS011;11067;48.788;9.208;2022-08-25T00:57:25;5.50;;;3.80;;
21810;SDS011;11067;48.788;9.208;2022-08-25T00:59:53;6.20;;;4.03;;
21810;SDS011;11067;48.788;9.208;2022-08-25T01:02:19;7.10;;;4.27;;
21810;SDS011;11067;48.788;9.208;2022-08-25T01:04:45;9.57;;;4.30;;
21810;SDS011;11067;48.788;9.208;2022-08-25T01:07:11;7.50;;;4.63;;
21810;SDS011;11067;48.788;9.208;2022-08-25T01:09:38;7.55;;;4.10;;
21810;SDS011;11067;48.788;9.208;2022-08-25T01:12:05;5.28;;;3.83;;
21810;SDS011;11067;48.788;9.208;2022-08-25T01:14:31;4.50;;;3.93;;
21810;SDS011;11067;48.788;9.208;2022-08-25T01:16:58;7.97;;;4.47;;
21810;SDS011;11067;48.788;9.208;2022-08-25T01:19:24;9.40;;;4.00;;
21810;SDS011;11067;48.788;9.208;2022-08-25T01:21:51;4.70;;;3.85;;
21810;SDS011;11067;48.788;9.208;2022-08-25T01:25:04;5.57;;;3.83;;
21810;SDS011;11067;48.788;9.208;2022-08-25T01:27:10;6.38;;;3.90;;
21810;SDS011;11067;48.788;9.208;2022-08-25T01:29:37;5.82;;;3.90;;
21810;SDS011;11067;48.788;9.208;2022-08-25T01:32:05;4.95;;;3.80;;
21810;SDS011;11067;48.788;9.208;2022-08-25T01:34:34;7.47;;;3.80;;
21810;SDS011;11067;48.788;9.208;2022-08-25T01:37:01;5.55;;;3.55;;
21810;SDS011;11067;48.788;9.208;2022-08-25T01:39:28;5.13;;;3.42;;
21810;SDS011;11067;48.788;9.208;2022-08-25T01:44:51;5.95;;;3.50;;
21810;SDS011;11067;48.788;9.208;2022-08-25T01:47:16;8.40;;;3.57;;
21810;SDS011;11067;48.788;9.208;2022-08-25T01:49:42;5.60;;;4.10;;
21810;SDS011;11067;48.788;9.208;2022-08-25T01:52:16;4.47;;;3.78;;
21810;SDS011;11067;48.788;9.208;2022-08-25T01:54:47;7.28;;;3.50;;
21810;SDS011;11067;48.788;9.208;2022-08-25T01:57:14;5.07;;;3.80;;
21810;SDS011;11067;48.788;9.208;2022-08-25T01:59:40;3.97;;;3.30;;
21810;SDS011;11067;48.788;9.208;2022-08-25T02:02:06;6.30;;;3.40;;
21810;SDS011;11067;48.788;9.208;2022-08-25T02:04:32;7.13;;;3.30;;
21810;SDS011;11067;48.788;9.208;2022-08-25T02:06:59;4.05;;;3.17;;
21810;SDS011;11067;48.788;9.208;2022-08-25T02:09:26;5.22;;;3.40;;
21810;SDS011;11067;48.788;9.208;2022-08-25T02:11:51;4.55;;;3.53;;
21810;SDS011;11067;48.788;9.208;2022-08-25T02:14:17;4.57;;;3.43;;
21810;SDS011;11067;48.788;9.208;2022-08-25T02:16:45;5.40;;;3.50;;
21810;SDS011;11067;48.788;9.208;2022-08-25T02:19:13;5.67;;;3.53;;
21810;SDS011;11067;48.788;9.208;2022-08-25T02:21:39;4.75;;;3.30;;
21810;SDS011;11067;48.788;9.208;2022-08-25T02:24:05;4.27;;;3.13;;
21810;SDS011;11067;48.788;9.208;2022-08-25T02:26:32;3.67;;;3.20;;
21810;SDS011;11067;48.788;9.208;2022-08-25T02:28:58;5.23;;;3.57;;
21810;SDS011;11067;48.788;9.208;2022-08-25T02:31:24;4.60;;;3.28;;
21810;SDS011;11067;48.788;9.208;2022-08-25T02:33:50;3.45;;;3.00;;
21810;SDS011;11067;48.788;9.208;2022-08-25T02:36:15;5.60;;;3.50;;
21810;SDS011;11067;48.788;9.208;2022-08-25T02:38:41;4.55;;;3.40;;
21810;SDS011;11067;48.788;9.208;2022-08-25T02:41:11;4.77;;;3.40;;
21810;SDS011;11067;48.788;9.208;2022-08-25T02:43:39;6.10;;;3.40;;
21810;SDS011;11067;48.788;9.208;2022-08-25T02:46:06;4.20;;;3.17;;
21810;SDS011;11067;48.788;9.208;2022-08-25T02:48:31;6.70;;;3.30;;
21810;SDS011;11067;48.788;9.208;2022-08-25T02:50:58;6.60;;;3.40;;
21810;SDS011;11067;48.788;9.208;2022-08-25T02:53:25;4.93;;;3.58;;
21810;SDS011;11067;48.788;9.208;2022-08-25T02:55:52;4.60;;;3.70;;
21810;SDS011;11067;48.788;9.208;2022-08-25T02:58:18;4.00;;;3.33;;
21810;SDS011;11067;48.788;9.208;2022-08-25T03:00:44;4.00;;;3.60;;
21810;SDS011;11067;48.788;9.208;2022-08-25T03:03:11;7.20;;;3.70;;
21810;SDS011;11067;48.788;9.208;2022-08-25T03:05:37;4.95;;;3.53;;
21810;SDS011;11067;48.788;9.208;2022-08-25T03:08:03;4.43;;;3.30;;
21810;SDS011;11067;48.788;9.208;2022-08-25T03:10:29;5.68;;;3.55;;
21810;SDS011;11067;48.788;9.208;2022-08-25T03:12:55;5.40;;;3.50;;
21810;SDS011;11067;48.788;9.208;2022-08-25T03:15:20;4.63;;;3.55;;
21810;SDS011;11067;48.788;9.208;2022-08-25T03:17:46;5.60;;;3.67;;
21810;SDS011;11067;48.788;9.208;2022-08-25T03:20:13;5.55;;;3.60;;
21810;SDS011;11067;48.788;9.208;2022-08-25T03:22:39;5.72;;;3.58;;
21810;SDS011;11067;48.788;9.208;2022-08-25T03:25:05;5.93;;;3.57;;
21810;SDS011;11067;48.788;9.208;2022-08-25T03:27:50;3.35;;;3.00;;
21810;SDS011;11067;48.788;9.208;2022-08-25T03:30:16;4.60;;;3.40;;
21810;SDS011;11067;48.788;9.208;2022-08-25T03:32:42;7.63;;;3.60;;
21810;SDS011;11067;48.788;9.208;2022-08-25T03:35:07;6.28;;;3.58;;
21810;SDS011;11067;48.788;9.208;2022-08-25T03:37:34;6.93;;;3.80;;
21810;SDS011;11067;48.788;9.208;2022-08-25T03:40:02;3.83;;;3.40;;
21810;SDS011;11067;48.788;9.208;2022-08-25T03:42:29;5.75;;;3.38;;
21810;SDS011;11067;48.788;9.208;2022-08-25T03:44:54;4.93;;;3.80;;
21810;SDS011;11067;48.788;9.208;2022-08-25T03:47:20;5.97;;;3.90;;
21810;SDS011;11067;48.788;9.208;2022-08-25T03:49:48;5.20;;;3.67;;
21810;SDS011;11067;48.788;9.208;2022-08-25T03:52:14;5.63;;;3.75;;
21810;SDS011;11067;48.788;9.208;2022-08-25T03:54:42;4.57;;;3.55;;
21810;SDS011;11067;48.788;9.208;2022-08-25T03:57:08;6.20;;;3.72;;
21810;SDS011;11067;48.788;9.208;2022-08-25T03:59:34;4.30;;;3.73;;
21810;SDS011;11067;48.788;9.208;2022-08-25T04:02:02;4.10;;;3.67;;
21810;SDS011;11067;48.788;9.208;2022-08-25T04:04:28;7.28;;;4.10;;
21810;SDS011;11067;48.788;9.208;2022-08-25T04:06:54;8.00;;;4.10;;
21810;SDS011;11067;48.788;9.208;2022-08-25T04:09:19;10.82;;;4.43;;
21810;SDS011;11067;48.788;9.208;2022-08-25T04:11:45;5.53;;;4.00;;
21810;SDS011;11067;48.788;9.208;2022-08-25T04:14:11;5.30;;;3.83;;
21810;SDS011;11067;48.788;9.208;2022-08-25T04:16:37;7.20;;;4.50;;
21810;SDS011;11067;48.788;9.208;2022-08-25T04:19:03;6.57;;;4.32;;
21810;SDS011;11067;48.788;9.208;2022-08-25T04:21:31;6.10;;;4.10;;
21810;SDS011;11067;48.788;9.208;2022-08-25T04:23:57;5.72;;;4.10;;
21810;SDS011;11067;48.788;9.208;2022-08-25T04:26:33;6.80;;;4.43;;
21810;SDS011;11067;48.788;9.208;2022-08-25T04:29:01;7.38;;;4.78;;
21810;SDS011;11067;48.788;9.208;2022-08-25T04:31:28;5.90;;;4.13;;
21810;SDS011;11067;48.788;9.208;2022-08-25T04:33:54;6.73;;;4.87;;
21810;SDS011;11067;48.788;9.208;2022-08-25T04:36:20;5.67;;;4.43;;
21810;SDS011;11067;48.788;9.208;2022-08-25T04:38:47;7.60;;;4.90;;
21810;SDS011;11067;48.788;9.208;2022-08-25T04:41:15;6.65;;;4.47;;
21810;SDS011;11067;48.788;9.208;2022-08-25T04:43:42;6.15;;;4.60;;
21810;SDS011;11067;48.788;9.208;2022-08-25T04:46:28;6.17;;;4.60;;
21810;SDS011;11067;48.788;9.208;2022-08-25T04:48:55;6.10;;;4.53;;
21810;SDS011;11067;48.788;9.208;2022-08-25T04:51:23;6.75;;;4.60;;
21810;SDS011;11067;48.788;9.208;2022-08-25T04:53:52;8.07;;;5.20;;
21810;SDS011;11067;48.788;9.208;2022-08-25T04:56:18;7.60;;;4.78;;
21810;SDS011;11067;48.788;9.208;2022-08-25T04:58:46;6.70;;;4.60;;
21810;SDS011;11067;48.788;9.208;2022-08-25T05:01:13;8.95;;;5.22;;
21810;SDS011;11067;48.788;9.208;2022-08-25T05:03:44;7.97;;;5.13;;
21810;SDS011;11067;48.788;9.208;2022-08-25T05:06:11;7.33;;;5.13;;
21810;SDS011;11067;48.788;9.208;2022-08-25T05:08:38;6.82;;;4.90;;
21810;SDS011;11067;48.788;9.208;2022-08-25T05:11:10;9.57;;;5.32;;
21810;SDS011;11067;48.788;9.208;2022-08-25T05:13:41;9.27;;;5.00;;
21810;SDS011;11067;48.788;9.208;2022-08-25T05:16:08;7.90;;;4.90;;
21810;SDS011;11067;48.788;9.208;2022-08-25T05:18:34;8.40;;;4.63;;
21810;SDS011;11067;48.788;9.208;2022-08-25T05:21:00;9.90;;;4.78;;
21810;SDS011;11067;48.788;9.208;2022-08-25T05:23:31;7.25;;;4.40;;
21810;SDS011;11067;48.788;9.208;2022-08-25T05:26:00;6.22;;;4.30;;
21810;SDS011;11067;48.788;9.208;2022-08-25T05:28:28;5.50;;;4.25;;
21810;SDS011;11067;48.788;9.208;2022-08-25T05:30:56;7.63;;;4.10;;
21810;SDS011;11067;48.788;9.208;2022-08-25T05:33:23;5.70;;;4.35;;
21810;SDS011;11067;48.788;9.208;2022-08-25T05:35:48;8.10;;;4.65;;
21810;SDS011;11067;48.788;9.208;2022-08-25T05:38:14;11.33;;;4.23;;
21810;SDS011;11067;48.788;9.208;2022-08-25T05:40:39;6.93;;;4.53;;
21810;SDS011;11067;48.788;9.208;2022-08-25T05:43:05;8.20;;;4.73;;
21810;SDS011;11067;48.788;9.208;2022-08-25T05:45:30;9.40;;;4.50;;
21810;SDS011;11067;48.788;9.208;2022-08-25T05:47:56;7.57;;;4.70;;
21810;SDS011;11067;48.788;9.208;2022-08-25T05:50:22;6.78;;;4.43;;
21810;SDS011;11067;48.788;9.208;2022-08-25T05:52:47;6.07;;;4.53;;
21810;SDS011;11067;48.788;9.208;2022-08-25T05:55:13;7.03;;;4.50;;
21810;SDS011;11067;48.788;9.208;2022-08-25T05:57:39;9.07;;;4.63;;
21810;SDS011;11067;48.788;9.208;2022-08-25T06:00:06;8.55;;;4.95;;
21810;SDS011;11067;48.788;9.208;2022-08-25T06:02:33;5.80;;;4.40;;
21810;SDS011;11067;48.788;9.208;2022-08-25T06:05:05;6.55;;;4.68;;
21810;SDS011;11067;48.788;9.208;2022-08-25T06:07:38;12.27;;;7.40;;
21810;SDS011;11067;48.788;9.208;2022-08-25T06:10:05;6.85;;;4.80;;
21810;SDS011;11067;48.788;9.208;2022-08-25T06:12:35;8.32;;;4.80;;
21810;SDS011;11067;48.788;9.208;2022-08-25T06:15:01;9.27;;;5.50;;
21810;SDS011;11067;48.788;9.208;2022-08-25T06:17:28;6.95;;;4.80;;
21810;SDS011;11067;48.788;9.208;2022-08-25T06:19:53;6.30;;;5.03;;
21810;SDS011;11067;48.788;9.208;2022-08-25T06:22:19;6.55;;;5.18;;
21810;SDS011;11067;48.788;9.208;2022-08-25T06:24:46;8.73;;;5.40;;
21810;SDS011;11067;48.788;9.208;2022-08-25T06:27:12;14.88;;;5.78;;
21810;SDS011;11067;48.788;9.208;2022-08-25T06:29:38;9.07;;;5.40;;
21810;SDS011;11067;48.788;9.208;2022-08-25T06:32:04;11.00;;;5.17;;
21810;SDS011;11067;48.788;9.208;2022-08-25T06:34:30;7.57;;;5.13;;
21810;SDS011;11067;48.788;9.208;2022-08-25T06:36:55;8.07;;;5.10;;
21810;SDS011;11067;48.788;9.208;2022-08-25T06:39:21;7.18;;;5.03;;
21810;SDS011;11067;48.788;9.208;2022-08-25T06:41:54;9.65;;;5.20;;
21810;SDS011;11067;48.788;9.208;2022-08-25T06:44:20;8.25;;;5.85;;
21810;SDS011;11067;48.788;9.208;2022-08-25T06:46:47;10.33;;;5.50;;
21810;SDS011;11067;48.788;9.208;2022-08-25T06:49:13;10.18;;;5.38;;
21810;SDS011;11067;48.788;9.208;2022-08-25T06:51:39;8.63;;;4.73;;
21810;SDS011;11067;48.788;9.208;2022-08-25T06:54:06;10.32;;;5.55;;
21810;SDS011;11067;48.788;9.208;2022-08-25T06:56:34;7.00;;;5.22;;
21810;SDS011;11067;48.788;9.208;2022-08-25T06:59:01;7.40;;;5.60;;
21810;SDS011;11067;48.788;9.208;2022-08-25T07:01:30;8.65;;;5.22;;
21810;SDS011;11067;48.788;9.208;2022-08-25T07:03:56;7.45;;;5.00;;
21810;SDS011;11067;48.788;9.208;2022-08-25T07:06:24;7.90;;;5.30;;
21810;SDS011;11067;48.788;9.208;2022-08-25T07:08:51;8.40;;;4.90;;
21810;SDS011;11067;48.788;9.208;2022-08-25T07:11:17;9.32;;;5.20;;
21810;SDS011;11067;48.788;9.208;2022-08-25T07:13:45;6.40;;;5.07;;
21810;SDS011;11067;48.788;9.208;2022-08-25T07:16:11;10.25;;;5.13;;
21810;SDS011;11067;48.788;9.208;2022-08-25T07:18:39;6.10;;;5.10;;
21810;SDS011;11067;48.788;9.208;2022-08-25T07:21:05;8.90;;;5.78;;
21810;SDS011;11067;48.788;9.208;2022-08-25T07:23:31;9.77;;;5.77;;
21810;SDS011;11067;48.788;9.208;2022-08-25T07:26:05;8.47;;;5.50;;
21810;SDS011;11067;48.788;9.208;2022-08-25T07:28:36;7.15;;;5.55;;
21810;SDS011;11067;48.788;9.208;2022-08-25T07:31:02;9.02;;;5.60;;
21810;SDS011;11067;48.788;9.208;2022-08-25T07:33:28;9.55;;;5.57;;
21810;SDS011;11067;48.788;9.208;2022-08-25T07:35:54;10.05;;;5.50;;
21810;SDS011;11067;48.788;9.208;2022-08-25T07:38:20;8.60;;;5.60;;
21810;SDS011;11067;48.788;9.208;2022-08-25T07:40:45;14.05;;;6.07;;
21810;SDS011;11067;48.788;9.208;2022-08-25T07:43:18;9.13;;;5.83;;
21810;SDS011;11067;48.788;9.208;2022-08-25T07:45:44;9.57;;;5.53;;
21810;SDS011;11067;48.788;9.208;2022-08-25T07:48:10;9.98;;;5.88;;
21810;SDS011;11067;48.788;9.208;2022-08-25T07:50:37;10.02;;;5.82;;
21810;SDS011;11067;48.788;9.208;2022-08-25T07:53:06;11.05;;;6.10;;
21810;SDS011;11067;48.788;9.208;2022-08-25T07:55:33;10.97;;;5.93;;
21810;SDS011;11067;48.788;9.208;2022-08-25T07:58:00;10.90;;;5.68;;
21810;SDS011;11067;48.788;9.208;2022-08-25T08:00:27;7.77;;;5.47;;
21810;SDS011;11067;48.788;9.208;2022-08-25T08:02:57;9.32;;;5.90;;
21810;SDS011;11067;48.788;9.208;2022-08-25T08:05:25;8.18;;;5.45;;
21810;SDS011;11067;48.788;9.208;2022-08-25T08:07:52;8.20;;;5.63;;
21810;SDS011;11067;48.788;9.208;2022-08-25T08:10:18;9.23;;;5.55;;
21810;SDS011;11067;48.788;9.208;2022-08-25T08:12:44;7.93;;;5.43;;
21810;SDS011;11067;48.788;9.208;2022-08-25T08:15:10;10.88;;;5.53;;
21810;SDS011;11067;48.788;9.208;2022-08-25T08:17:36;7.32;;;5.43;;
21810;SDS011;11067;48.788;9.208;2022-08-25T08:20:03;8.65;;;5.28;;
21810;SDS011;11067;48.788;9.208;2022-08-25T08:22:32;6.70;;;4.88;;
21810;SDS011;11067;48.788;9.208;2022-08-25T08:25:02;7.77;;;5.10;;
21810;SDS011;11067;48.788;9.208;2022-08-25T08:27:28;7.97;;;5.03;;
21810;SDS011;11067;48.788;9.208;2022-08-25T08:29:54;11.63;;;5.35;;
21810;SDS011;11067;48.788;9.208;2022-08-25T08:32:19;6.97;;;4.57;;
21810;SDS011;11067;48.788;9.208;2022-08-25T08:34:45;10.98;;;5.30;;
21810;SDS011;11067;48.788;9.208;2022-08-25T08:37:11;8.95;;;5.22;;
21810;SDS011;11067;48.788;9.208;2022-08-25T08:39:37;7.38;;;4.63;;
21810;SDS011;11067;48.788;9.208;2022-08-25T08:50:51;10.20;;;5.25;;
21810;SDS011;11067;48.788;9.208;2022-08-25T08:53:24;7.30;;;4.60;;
21810;SDS011;11067;48.788;9.208;2022-08-25T08:56:13;4.90;;;4.40;;
21810;SDS011;11067;48.788;9.208;2022-08-25T08:59:02;5.72;;;4.20;;
21810;SDS011;11067;48.788;9.208;2022-08-25T09:01:32;6.73;;;4.20;;
21810;SDS011;11067;48.788;9.208;2022-08-25T09:04:19;4.97;;;4.00;;
21810;SDS011;11067;48.788;9.208;2022-08-25T09:06:51;7.03;;;4.23;;
21810;SDS011;11067;48.788;9.208;2022-08-25T09:09:19;6.18;;;3.90;;
21810;SDS011;11067;48.788;9.208;2022-08-25T09:17:44;5.50;;;3.97;;
21810;SDS011;11067;48.788;9.208;2022-08-25T09:20:52;4.63;;;3.90;;
21810;SDS011;11067;48.788;9.208;2022-08-25T09:23:38;5.05;;;3.90;;
21810;SDS011;11067;48.788;9.208;2022-08-25T09:26:28;5.78;;;4.25;;
21810;SDS011;11067;48.788;9.208;2022-08-25T09:31:39;6.15;;;4.05;;
21810;SDS011;11067;48.788;9.208;2022-08-25T09:34:27;6.18;;;4.25;;
21810;SDS011;11067;48.788;9.208;2022-08-25T09:36:54;5.13;;;4.40;;
21810;SDS011;11067;48.788;9.208;2022-08-25T09:39:21;5.30;;;4.30;;
21810;SDS011;11067;48.788;9.208;2022-08-25T09:41:53;8.10;;;4.93;;
21810;SDS011;11067;48.788;9.208;2022-08-25T09:47:23;6.90;;;4.35;;
21810;SDS011;11067;48.788;9.208;2022-08-25T09:49:58;5.80;;;4.78;;
21810;SDS011;11067;48.788;9.208;2022-08-25T09:54:56;5.53;;;4.55;;
21810;SDS011;11067;48.788;9.208;2022-08-25T10:00:12;6.75;;;4.90;;
21810;SDS011;11067;48.788;9.208;2022-08-25T10:02:38;6.15;;;4.43;;
21810;SDS011;11067;48.788;9.208;2022-08-25T10:05:21;4.78;;;4.03;;
21810;SDS011;11067;48.788;9.208;2022-08-25T10:07:59;7.20;;;4.43;;
21810;SDS011;11067;48.788;9.208;2022-08-25T10:13:14;5.93;;;4.43;;
21810;SDS011;11067;48.788;9.208;2022-08-25T10:15:43;5.82;;;4.22;;
21810;SDS011;11067;48.788;9.208;2022-08-25T10:18:22;5.50;;;4.22;;
21810;SDS011;11067;48.788;9.208;2022-08-25T10:23:25;8.13;;;4.63;;
21810;SDS011;11067;48.788;9.208;2022-08-25T10:25:51;7.78;;;4.15;;
21810;SDS011;11067;48.788;9.208;2022-08-25T10:28:31;5.57;;;3.87;;
21810;SDS011;11067;48.788;9.208;2022-08-25T10:36:45;4.85;;;3.65;;
21810;SDS011;11067;48.788;9.208;2022-08-25T10:39:27;5.77;;;3.77;;
21810;SDS011;11067;48.788;9.208;2022-08-25T10:45:22;5.15;;;4.35;;
21810;SDS011;11067;48.788;9.208;2022-08-25T10:51:34;6.60;;;4.45;;
21810;SDS011;11067;48.788;9.208;2022-08-25T11:00:14;4.35;;;3.85;;
21810;SDS011;11067;48.788;9.208;2022-08-25T11:05:46;4.90;;;3.85;;
21810;SDS011;11067;48.788;9.208;2022-08-25T11:08:25;5.47;;;3.65;;
21810;SDS011;11067;48.788;9.208;2022-08-25T11:11:07;6.85;;;3.72;;
21810;SDS011;11067;48.788;9.208;2022-08-25T11:14:01;5.10;;;3.60;;
21810;SDS011;11067;48.788;9.208;2022-08-25T11:16:38;3.55;;;3.22;;
21810;SDS011;11067;48.788;9.208;2022-08-25T11:19:18;4.93;;;3.65;;
21810;SDS011;11067;48.788;9.208;2022-08-25T11:24:41;5.70;;;3.60;;
21810;SDS011;11067;48.788;9.208;2022-08-25T11:27:36;4.03;;;3.08;;
21810;SDS011;11067;48.788;9.208;2022-08-25T11:32:36;3.85;;;3.45;;
21810;SDS011;11067;48.788;9.208;2022-08-25T11:35:06;3.97;;;3.50;;
21810;SDS011;11067;48.788;9.208;2022-08-25T11:37:36;4.05;;;3.30;;
21810;SDS011;11067;48.788;9.208;2022-08-25T11:40:21;4.90;;;3.28;;
21810;SDS011;11067;48.788;9.208;2022-08-25T11:45:51;5.82;;;3.58;;
21810;SDS011;11067;48.788;9.208;2022-08-25T11:51:46;3.13;;;2.70;;
21810;SDS011;11067;48.788;9.208;2022-08-25T11:54:20;3.85;;;2.90;;
21810;SDS011;11067;48.788;9.208;2022-08-25T11:57:01;6.10;;;3.20;;
21810;SDS011;11067;48.788;9.208;2022-08-25T12:05:02;3.30;;;2.95;;
21810;SDS011;11067;48.788;9.208;2022-08-25T12:10:14;3.28;;;2.97;;
21810;SDS011;11067;48.788;9.208;2022-08-25T12:12:56;4.63;;;3.75;;
21810;SDS011;11067;48.788;9.208;2022-08-25T12:23:28;3.70;;;3.20;;
21810;SDS011;11067;48.788;9.208;2022-08-25T12:25:56;3.50;;;2.83;;
21810;SDS011;11067;48.788;9.208;2022-08-25T12:28:29;3.87;;;2.97;;
21810;SDS011;11067;48.788;9.208;2022-08-25T12:31:10;4.25;;;2.92;;
21810;SDS011;11067;48.788;9.208;2022-08-25T12:33:53;6.40;;;3.07;;
21810;SDS011;11067;48.788;9.208;2022-08-25T12:36:32;3.25;;;2.95;;
21810;SDS011;11067;48.788;9.208;2022-08-25T12:39:15;4.63;;;3.03;;
21810;SDS011;11067;48.788;9.208;2022-08-25T12:47:23;4.70;;;2.70;;
21810;SDS011;11067;48.788;9.208;2022-08-25T12:49:52;3.08;;;2.70;;
21810;SDS011;11067;48.788;9.208;2022-08-25T12:52:37;3.45;;;2.55;;
21810;SDS011;11067;48.788;9.208;2022-08-25T12:55:04;4.17;;;3.00;;
21810;SDS011;11067;48.788;9.208;2022-08-25T12:57:39;4.45;;;3.30;;
21810;SDS011;11067;48.788;9.208;2022-08-25T13:00:14;3.50;;;3.00;;
21810;SDS011;11067;48.788;9.208;2022-08-25T13:12:32;5.25;;;3.05;;
21810;SDS011;11067;48.788;9.208;2022-08-25T13:14:41;3.10;;;2.80;;
21810;SDS011;11067;48.788;9.208;2022-08-25T13:17:08;3.67;;;3.20;;
21810;SDS011;11067;48.788;9.208;2022-08-25T13:19:34;7.55;;;3.08;;
21810;SDS011;11067;48.788;9.208;2022-08-25T13:22:09;4.63;;;3.05;;
21810;SDS011;11067;48.788;9.208;2022-08-25T13:24:41;3.28;;;2.92;;
21810;SDS011;11067;48.788;9.208;2022-08-25T13:27:09;4.30;;;3.03;;
21810;SDS011;11067;48.788;9.208;2022-08-25T13:29:49;3.97;;;2.87;;
21810;SDS011;11067;48.788;9.208;2022-08-25T13:32:23;3.17;;;2.88;;
21810;SDS011;11067;48.788;9.208;2022-08-25T13:35:06;2.92;;;2.63;;
21810;SDS011;11067;48.788;9.208;2022-08-25T13:37:38;5.20;;;2.80;;
21810;SDS011;11067;48.788;9.208;2022-08-25T13:40:14;4.00;;;2.80;;
21810;SDS011;11067;48.788;9.208;2022-08-25T13:42:51;2.70;;;2.22;;
21810;SDS011;11067;48.788;9.208;2022-08-25T13:45:21;2.57;;;2.33;;
21810;SDS011;11067;48.788;9.208;2022-08-25T13:47:48;3.13;;;2.50;;
21810;SDS011;11067;48.788;9.208;2022-08-25T13:50:34;2.30;;;2.10;;
21810;SDS011;11067;48.788;9.208;2022-08-25T13:53:03;3.25;;;2.60;;
21810;SDS011;11067;48.788;9.208;2022-08-25T13:58:03;3.45;;;2.33;;
21810;SDS011;11067;48.788;9.208;2022-08-25T14:00:34;3.80;;;2.90;;
21810;SDS011;11067;48.788;9.208;2022-08-25T14:03:05;3.60;;;2.30;;
21810;SDS011;11067;48.788;9.208;2022-08-25T14:05:40;3.50;;;2.60;;
21810;SDS011;11067;48.788;9.208;2022-08-25T14:08:26;3.15;;;2.80;;
21810;SDS011;11067;48.788;9.208;2022-08-25T14:11:05;2.90;;;2.60;;
21810;SDS011;11067;48.788;9.208;2022-08-25T14:13:31;3.75;;;3.05;;
21810;SDS011;11067;48.788;9.208;2022-08-25T14:16:19;4.82;;;2.92;;
21810;SDS011;11067;48.788;9.208;2022-08-25T14:18:46;4.07;;;2.70;;
21810;SDS011;11067;48.788;9.208;2022-08-25T14:21:14;3.78;;;2.83;;
21810;SDS011;11067;48.788;9.208;2022-08-25T14:23:41;3.80;;;2.80;;
21810;SDS011;11067;48.788;9.208;2022-08-25T14:26:07;2.72;;;2.50;;
21810;SDS011;11067;48.788;9.208;2022-08-25T14:28:32;3.90;;;2.60;;
21810;SDS011;11067;48.788;9.208;2022-08-25T14:33:29;3.70;;;2.75;;
21810;SDS011;11067;48.788;9.208;2022-08-25T14:36:05;4.00;;;3.08;;
21810;SDS011;11067;48.788;9.208;2022-08-25T14:38:32;2.93;;;2.60;;
21810;SDS011;11067;48.788;9.208;2022-08-25T14:40:58;3.77;;;2.63;;
21810;SDS011;11067;48.788;9.208;2022-08-25T14:43:24;2.97;;;2.67;;
21810;SDS011;11067;48.788;9.208;2022-08-25T14:45:49;3.63;;;2.57;;
21810;SDS011;11067;48.788;9.208;2022-08-25T14:48:18;3.30;;;2.77;;
21810;SDS011;11067;48.788;9.208;2022-08-25T14:50:49;2.97;;;2.67;;
21810;SDS011;11067;48.788;9.208;2022-08-25T14:53:15;3.63;;;2.63;;
21810;SDS011;11067;48.788;9.208;2022-08-25T14:55:41;6.63;;;2.95;;
21810;SDS011;11067;48.788;9.208;2022-08-25T14:58:07;3.25;;;2.50;;
21810;SDS011;11067;48.788;9.208;2022-08-25T15:00:34;4.30;;;3.30;;
21810;SDS011;11067;48.788;9.208;2022-08-25T15:03:03;4.28;;;2.90;;
21810;SDS011;11067;48.788;9.208;2022-08-25T15:05:29;3.77;;;2.80;;
21810;SDS011;11067;48.788;9.208;2022-08-25T15:07:55;3.30;;;2.67;;
21810;SDS011;11067;48.788;9.208;2022-08-25T15:10:40;3.08;;;2.50;;
21810;SDS011;11067;48.788;9.208;2022-08-25T15:13:06;3.77;;;2.87;;
21810;SDS011;11067;48.788;9.208;2022-08-25T15:15:33;4.25;;;2.67;;
21810;SDS011;11067;48.788;9.208;2022-08-25T15:18:03;2.60;;;2.30;;
21810;SDS011;11067;48.788;9.208;2022-08-25T15:20:29;3.87;;;2.93;;
21810;SDS011;11067;48.788;9.208;2022-08-25T15:22:54;3.55;;;2.92;;
21810;SDS011;11067;48.788;9.208;2022-08-25T15:25:20;3.20;;;2.70;;
21810;SDS011;11067;48.788;9.208;2022-08-25T15:27:46;3.67;;;2.65;;
21810;SDS011;11067;48.788;9.208;2022-08-25T15:30:12;4.30;;;2.70;;
21810;SDS011;11067;48.788;9.208;2022-08-25T15:32:38;3.05;;;2.75;;
21810;SDS011;11067;48.788;9.208;2022-08-25T15:35:04;5.00;;;2.63;;
21810;SDS011;11067;48.788;9.208;2022-08-25T15:37:30;7.13;;;2.85;;
21810;SDS011;11067;48.788;9.208;2022-08-25T15:39:56;3.90;;;2.80;;
21810;SDS011;11067;48.788;9.208;2022-08-25T15:42:22;3.72;;;2.78;;
21810;SDS011;11067;48.788;9.208;2022-08-25T15:44:49;3.17;;;2.70;;
21810;SDS011;11067;48.788;9.208;2022-08-25T15:47:14;4.30;;;2.92;;
21810;SDS011;11067;48.788;9.208;2022-08-25T15:49:40;3.27;;;2.90;;
21810;SDS011;11067;48.788;9.208;2022-08-25T15:52:07;3.28;;;2.80;;
21810;SDS011;11067;48.788;9.208;2022-08-25T15:54:32;3.15;;;2.80;;
21810;SDS011;11067;48.788;9.208;2022-08-25T15:56:58;3.17;;;2.80;;
21810;SDS011;11067;48.788;9.208;2022-08-25T15:59:24;5.25;;;2.80;;
21810;SDS011;11067;48.788;9.208;2022-08-25T16:01:50;3.30;;;2.65;;
21810;SDS011;11067;48.788;9.208;2022-08-25T16:04:20;2.92;;;2.60;;
21810;SDS011;11067;48.788;9.208;2022-08-25T16:06:46;3.33;;;2.70;;
21810;SDS011;11067;48.788;9.208;2022-08-25T16:09:12;2.72;;;2.53;;
21810;SDS011;11067;48.788;9.208;2022-08-25T16:11:37;4.27;;;2.60;;
21810;SDS011;11067;48.788;9.208;2022-08-25T16:14:03;3.37;;;2.73;;
21810;SDS011;11067;48.788;9.208;2022-08-25T16:16:30;2.60;;;2.40;;
21810;SDS011;11067;48.788;9.208;2022-08-25T16:18:56;2.83;;;2.53;;
21810;SDS011;11067;48.788;9.208;2022-08-25T16:21:23;3.03;;;2.73;;
21810;SDS011;11067;48.788;9.208;2022-08-25T16:23:54;3.00;;;2.70;;
21810;SDS011;11067;48.788;9.208;2022-08-25T16:26:24;2.97;;;2.67;;
21810;SDS011;11067;48.788;9.208;2022-08-25T16:28:50;3.67;;;3.28;;
21810;SDS011;11067;48.788;9.208;2022-08-25T16:31:16;3.87;;;2.80;;
21810;SDS011;11067;48.788;9.208;2022-08-25T16:33:42;4.95;;;2.70;;
21810;SDS011;11067;48.788;9.208;2022-08-25T16:38:40;4.10;;;2.58;;
21810;SDS011;11067;48.788;9.208;2022-08-25T16:41:07;3.97;;;3.03;;
21810;SDS011;11067;48.788;9.208;2022-08-25T16:43:34;3.38;;;2.92;;
21810;SDS011;11067;48.788;9.208;2022-08-25T16:46:01;4.03;;;3.20;;
21810;SDS011;11067;48.788;9.208;2022-08-25T16:48:28;3.50;;;2.88;;